Time;durP1;ratioP1;P1;durP2;ratioP2;P2;SDS_P1;SDS_P2;PMS_P1;PMS_P2;Temp;Humidity;BMP_temperature;BMP_pressure;BME280_temperature;BME280_humidity;BME280_pressure;Samples;Min_cycle;Max_cycle;Signal;HPM_P1;HPM_P2
2022/11/28 00:01:46;;;;;;;6.32;3.78;;;;;;;;;;5056683;28;20052;-86
2022/11/28 00:04:15;;;;;;;5.90;3.75;;;;;;;;;;5079540;28;20039;-87
2022/11/28 00:06:45;;;;;;;5.25;3.25;;;;;;;;;;5069538;28;20037;-86
2022/11/28 00:09:12;;;;;;;4.65;3.05;;;;;;;;;;5034335;28;20530;-84
2022/11/28 00:11:40;;;;;;;6.75;3.90;;;;;;;;;;5053394;28;20101;-86
2022/11/28 00:14:05;;;;;;;7.55;3.80;;;;;;;;;;5055330;28;20029;-87
2022/11/28 00:16:31;;;;;;;8.38;3.58;;;;;;;;;;5054171;28;20036;-87
2022/11/28 00:18:59;;;;;;;6.03;3.88;;;;;;;;;;5062509;28;19997;-85
2022/11/28 00:21:24;;;;;;;4.40;3.15;;;;;;;;;;5073412;28;20029;-86
2022/11/28 00:23:50;;;;;;;5.80;3.55;;;;;;;;;;5057698;28;20033;-86
2022/11/28 00:26:18;;;;;;;6.45;3.85;;;;;;;;;;5062136;28;20024;-88
2022/11/28 00:28:44;;;;;;;4.60;3.78;;;;;;;;;;5077020;28;20041;-88
2022/11/28 00:31:14;;;;;;;7.93;4.07;;;;;;;;;;5078912;28;20059;-87
2022/11/28 00:33:43;;;;;;;5.20;3.42;;;;;;;;;;5071600;28;20032;-86
2022/11/28 00:36:09;;;;;;;5.28;3.28;;;;;;;;;;5056944;28;20116;-86
2022/11/28 00:38:35;;;;;;;6.43;3.80;;;;;;;;;;5066669;28;20040;-86
2022/11/28 00:41:05;;;;;;;6.25;3.72;;;;;;;;;;5066039;28;20048;-85
2022/11/28 00:43:31;;;;;;;7.95;4.05;;;;;;;;;;5065864;28;20537;-86
2022/11/28 00:45:57;;;;;;;7.88;3.90;;;;;;;;;;5047033;28;20078;-87
2022/11/28 00:48:23;;;;;;;6.97;4.43;;;;;;;;;;5052325;28;20028;-88
2022/11/28 00:50:50;;;;;;;8.88;4.53;;;;;;;;;;5063160;28;20050;-86
2022/11/28 00:53:15;;;;;;;6.70;3.83;;;;;;;;;;5051458;28;20017;-86
2022/11/28 00:55:41;;;;;;;7.63;4.43;;;;;;;;;;5071865;28;20020;-86
2022/11/28 00:58:06;;;;;;;6.50;4.40;;;;;;;;;;5051502;28;20040;-86
2022/11/28 01:00:32;;;;;;;6.47;3.78;;;;;;;;;;5049309;28;20025;-88
2022/11/28 01:02:58;;;;;;;6.00;3.95;;;;;;;;;;5059713;28;20025;-86
2022/11/28 01:05:24;;;;;;;6.20;3.63;;;;;;;;;;5062601;28;20157;-86
2022/11/28 01:07:50;;;;;;;8.70;4.32;;;;;;;;;;5060646;28;20522;-84
2022/11/28 01:10:15;;;;;;;5.78;3.67;;;;;;;;;;5043889;28;20028;-86
2022/11/28 01:12:40;;;;;;;7.28;4.25;;;;;;;;;;5062522;28;20043;-87
2022/11/28 01:15:09;;;;;;;7.78;4.63;;;;;;;;;;5060665;28;20025;-85
2022/11/28 01:17:35;;;;;;;6.03;4.00;;;;;;;;;;5065550;28;20135;-84
2022/11/28 01:20:04;;;;;;;7.65;3.97;;;;;;;;;;5065331;28;20656;-85
2022/11/28 01:22:29;;;;;;;5.43;3.65;;;;;;;;;;5061526;28;20079;-86
2022/11/28 01:24:54;;;;;;;5.78;3.58;;;;;;;;;;5062029;28;20416;-88
2022/11/28 01:27:20;;;;;;;8.75;4.20;;;;;;;;;;5045933;28;20047;-87
2022/11/28 01:29:45;;;;;;;6.30;3.45;;;;;;;;;;5063401;28;20028;-86
2022/11/28 01:32:10;;;;;;;7.25;4.18;;;;;;;;;;5066277;28;20043;-86
2022/11/28 01:34:36;;;;;;;6.18;4.10;;;;;;;;;;5044999;28;20013;-86
2022/11/28 01:37:01;;;;;;;6.53;3.72;;;;;;;;;;5068259;28;20043;-87
2022/11/28 01:39:26;;;;;;;4.78;3.38;;;;;;;;;;5042188;28;20032;-87
2022/11/28 01:41:52;;;;;;;7.65;4.18;;;;;;;;;;5037961;28;20108;-86
2022/11/28 01:44:17;;;;;;;9.30;4.63;;;;;;;;;;5056380;28;20040;-85
2022/11/28 01:46:42;;;;;;;6.45;3.67;;;;;;;;;;5046124;28;20021;-86
2022/11/28 01:49:20;;;;;;;6.53;4.18;;;;;;;;;;5047437;28;20081;-85
2022/11/28 01:51:49;;;;;;;7.95;4.45;;;;;;;;;;5032751;28;20021;-86
2022/11/28 01:54:16;;;;;;;9.10;4.10;;;;;;;;;;5048777;28;20021;-84
2022/11/28 01:56:52;;;;;;;6.50;3.80;;;;;;;;;;5045880;28;20471;-86
2022/11/28 01:59:20;;;;;;;5.03;3.53;;;;;;;;;;5064775;28;20051;-87
2022/11/28 02:01:45;;;;;;;5.28;3.63;;;;;;;;;;5054385;28;20025;-85
2022/11/28 02:04:12;;;;;;;5.82;3.78;;;;;;;;;;5056567;28;20024;-86
2022/11/28 02:06:40;;;;;;;7.90;4.35;;;;;;;;;;5056174;28;20087;-85
2022/11/28 02:09:11;;;;;;;8.50;4.10;;;;;;;;;;5039207;28;20074;-86
2022/11/28 02:12:08;;;;;;;5.78;3.13;;;;;;;;;;5058694;28;20027;-84
2022/11/28 02:15:09;;;;;;;5.25;3.97;;;;;;;;;;5051167;28;20089;-85
2022/11/28 02:18:05;;;;;;;5.80;4.00;;;;;;;;;;5047119;28;20029;-84
2022/11/28 02:20:36;;;;;;;8.73;4.30;;;;;;;;;;5053381;28;20055;-84
2022/11/28 02:23:16;;;;;;;7.03;3.95;;;;;;;;;;5059663;28;20055;-85
2022/11/28 02:25:59;;;;;;;7.35;3.95;;;;;;;;;;5057674;28;20036;-84
2022/11/28 02:28:28;;;;;;;4.57;3.60;;;;;;;;;;5057589;28;20112;-85
2022/11/28 02:31:02;;;;;;;6.38;4.45;;;;;;;;;;5058511;28;20429;-86
2022/11/28 02:33:31;;;;;;;6.05;3.60;;;;;;;;;;5056054;28;20029;-85
2022/11/28 02:36:15;;;;;;;6.82;3.97;;;;;;;;;;5055834;28;20064;-85
2022/11/28 02:39:17;;;;;;;5.65;3.90;;;;;;;;;;5059222;28;20029;-86
2022/11/28 02:42:07;;;;;;;9.27;3.95;;;;;;;;;;5057098;28;20443;-83
2022/11/28 02:44:51;;;;;;;7.30;4.00;;;;;;;;;;5041461;28;20138;-86
2022/11/28 02:47:24;;;;;;;8.15;4.22;;;;;;;;;;5053547;28;20099;-84
2022/11/28 02:50:21;;;;;;;8.20;4.05;;;;;;;;;;5036973;28;20021;-84
2022/11/28 02:52:52;;;;;;;9.13;4.07;;;;;;;;;;5055397;28;20570;-85
2022/11/28 02:55:18;;;;;;;5.97;4.07;;;;;;;;;;5055099;28;20036;-85
2022/11/28 02:57:51;;;;;;;5.75;3.70;;;;;;;;;;5054908;28;20033;-85
2022/11/28 03:00:27;;;;;;;7.43;3.95;;;;;;;;;;5053928;28;20108;-85
2022/11/28 03:03:01;;;;;;;5.22;3.45;;;;;;;;;;5043236;28;20458;-85
2022/11/28 03:05:41;;;;;;;6.00;3.63;;;;;;;;;;5049832;28;20059;-85
2022/11/28 03:08:38;;;;;;;5.53;4.00;;;;;;;;;;5056774;28;20048;-85
2022/11/28 03:11:29;;;;;;;4.88;3.33;;;;;;;;;;5056237;28;20032;-85
2022/11/28 03:14:00;;;;;;;6.60;3.72;;;;;;;;;;5061957;28;20032;-85
2022/11/28 03:16:47;;;;;;;9.50;4.27;;;;;;;;;;5074319;28;20024;-85
2022/11/28 03:19:20;;;;;;;6.90;3.78;;;;;;;;;;5069781;28;20060;-86
2022/11/28 03:22:00;;;;;;;6.53;3.95;;;;;;;;;;5073816;28;20012;-84
2022/11/28 03:24:47;;;;;;;6.60;4.10;;;;;;;;;;5072280;28;20036;-84
2022/11/28 03:27:34;;;;;;;5.28;3.65;;;;;;;;;;5071187;28;20028;-87
2022/11/28 03:30:18;;;;;;;6.43;3.83;;;;;;;;;;5064226;28;20028;-86
2022/11/28 03:32:46;;;;;;;6.82;4.03;;;;;;;;;;5062120;28;20021;-85
2022/11/28 03:35:18;;;;;;;6.53;3.60;;;;;;;;;;5062749;28;20040;-84
2022/11/28 03:38:10;;;;;;;9.63;4.20;;;;;;;;;;5064915;28;20031;-85
2022/11/28 03:40:41;;;;;;;10.57;4.07;;;;;;;;;;5071486;28;20042;-86
2022/11/28 03:43:15;;;;;;;8.27;3.80;;;;;;;;;;5055591;28;20103;-85
2022/11/28 03:45:45;;;;;;;6.10;3.75;;;;;;;;;;5052407;28;20094;-85
2022/11/28 03:48:22;;;;;;;7.18;3.65;;;;;;;;;;5047639;28;20047;-87
2022/11/28 03:50:54;;;;;;;6.40;3.88;;;;;;;;;;5042314;28;20024;-86
2022/11/28 03:53:26;;;;;;;4.70;3.05;;;;;;;;;;5030831;28;20017;-85
2022/11/28 03:56:18;;;;;;;6.60;3.83;;;;;;;;;;5033530;28;20119;-86
2022/11/28 03:58:52;;;;;;;6.13;3.53;;;;;;;;;;5052098;28;20029;-85
2022/11/28 04:01:27;;;;;;;6.47;3.33;;;;;;;;;;5047849;28;20490;-85
2022/11/28 04:04:14;;;;;;;6.85;4.03;;;;;;;;;;5047507;28;20391;-84
2022/11/28 04:06:43;;;;;;;7.65;3.22;;;;;;;;;;5051257;28;20029;-84
2022/11/28 04:09:14;;;;;;;5.65;3.08;;;;;;;;;;5060875;28;20356;-85
2022/11/28 04:11:55;;;;;;;6.38;4.40;;;;;;;;;;5036705;28;20025;-83
2022/11/28 04:14:50;;;;;;;7.00;4.25;;;;;;;;;;5039275;28;20028;-85
2022/11/28 04:17:21;;;;;;;4.63;3.13;;;;;;;;;;5053414;28;20070;-86
2022/11/28 04:19:54;;;;;;;7.95;3.85;;;;;;;;;;5053626;28;20024;-86
2022/11/28 04:22:23;;;;;;;7.72;4.13;;;;;;;;;;5055022;28;20039;-86
2022/11/28 04:24:54;;;;;;;5.57;3.30;;;;;;;;;;5054016;28;20641;-84
2022/11/28 04:27:26;;;;;;;5.60;3.70;;;;;;;;;;5050500;28;20079;-86
2022/11/28 04:29:58;;;;;;;10.73;3.97;;;;;;;;;;5042281;28;20080;-88
2022/11/28 04:32:25;;;;;;;7.38;3.47;;;;;;;;;;5044034;28;20398;-86
2022/11/28 04:34:58;;;;;;;12.45;4.70;;;;;;;;;;5041034;28;20762;-86
2022/11/28 04:37:26;;;;;;;9.80;4.30;;;;;;;;;;5025702;28;20025;-86
2022/11/28 04:39:54;;;;;;;5.50;3.50;;;;;;;;;;5042075;28;20017;-85
2022/11/28 04:42:25;;;;;;;6.22;3.17;;;;;;;;;;5043665;28;20029;-83
2022/11/28 04:45:00;;;;;;;5.38;3.63;;;;;;;;;;5041034;28;20032;-84
2022/11/28 04:47:25;;;;;;;8.18;3.78;;;;;;;;;;5055211;28;20032;-85
2022/11/28 04:49:52;;;;;;;11.10;4.05;;;;;;;;;;5058727;28;20451;-86
2022/11/28 04:52:36;;;;;;;9.05;4.00;;;;;;;;;;5057525;28;20017;-85
2022/11/28 04:55:16;;;;;;;7.00;4.22;;;;;;;;;;5061964;28;20025;-87
2022/11/28 04:57:45;;;;;;;6.25;3.50;;;;;;;;;;5062506;28;20025;-89
2022/11/28 05:00:17;;;;;;;8.35;4.20;;;;;;;;;;5056795;28;20021;-86
2022/11/28 05:02:45;;;;;;;6.07;3.25;;;;;;;;;;5037082;28;20025;-87
2022/11/28 05:05:17;;;;;;;7.15;3.90;;;;;;;;;;5051949;28;20107;-87
2022/11/28 05:07:43;;;;;;;6.93;4.38;;;;;;;;;;5056119;28;20033;-87
2022/11/28 05:10:11;;;;;;;6.82;3.65;;;;;;;;;;5061027;28;20025;-86
2022/11/28 05:12:36;;;;;;;5.97;3.92;;;;;;;;;;5061146;28;20033;-87
2022/11/28 05:15:02;;;;;;;5.80;3.63;;;;;;;;;;5059240;28;20029;-87
2022/11/28 05:17:28;;;;;;;5.88;3.60;;;;;;;;;;5039731;28;20025;-87
2022/11/28 05:19:53;;;;;;;9.77;4.60;;;;;;;;;;5048006;28;20025;-87
2022/11/28 05:22:18;;;;;;;4.45;3.45;;;;;;;;;;5031243;28;20475;-88
2022/11/28 05:24:44;;;;;;;6.15;3.78;;;;;;;;;;5048578;28;20033;-87
2022/11/28 05:27:10;;;;;;;4.72;3.25;;;;;;;;;;5046333;28;20033;-87
2022/11/28 05:29:36;;;;;;;9.13;4.30;;;;;;;;;;5040895;28;20025;-86
2022/11/28 05:32:02;;;;;;;5.90;3.55;;;;;;;;;;5027825;28;20034;-87
2022/11/28 05:34:29;;;;;;;8.60;4.25;;;;;;;;;;5039281;28;20032;-88
2022/11/28 05:36:56;;;;;;;11.50;3.95;;;;;;;;;;5038827;28;20033;-88
2022/11/28 05:39:21;;;;;;;6.93;3.95;;;;;;;;;;5039158;28;20036;-89
2022/11/28 05:41:46;;;;;;;10.95;4.25;;;;;;;;;;5037915;28;20017;-87
2022/11/28 05:44:12;;;;;;;6.13;4.13;;;;;;;;;;5035937;28;20463;-87
2022/11/28 05:46:37;;;;;;;7.95;3.72;;;;;;;;;;5039656;28;20021;-86
2022/11/28 05:49:02;;;;;;;7.28;3.95;;;;;;;;;;5036926;28;20049;-86
2022/11/28 05:51:28;;;;;;;8.07;4.65;;;;;;;;;;5023048;28;20025;-87
2022/11/28 05:53:53;;;;;;;7.93;4.50;;;;;;;;;;5041143;28;20029;-87
2022/11/28 05:56:21;;;;;;;9.32;4.07;;;;;;;;;;5041029;28;20049;-85
2022/11/28 05:58:47;;;;;;;6.57;3.67;;;;;;;;;;5025958;28;20028;-85
2022/11/28 06:01:17;;;;;;;8.32;4.30;;;;;;;;;;5048732;28;20025;-86
2022/11/28 06:03:43;;;;;;;4.78;3.78;;;;;;;;;;5052803;28;20036;-86
2022/11/28 06:06:14;;;;;;;9.55;4.50;;;;;;;;;;5055471;28;20228;-85
2022/11/28 06:08:40;;;;;;;5.82;3.47;;;;;;;;;;5036197;28;20053;-85
2022/11/28 06:11:07;;;;;;;7.25;4.25;;;;;;;;;;5054707;28;20018;-86
2022/11/28 06:13:32;;;;;;;7.55;3.38;;;;;;;;;;5037021;28;20017;-84
2022/11/28 06:15:58;;;;;;;10.60;3.72;;;;;;;;;;5020991;28;20105;-88
2022/11/28 06:18:23;;;;;;;6.20;4.40;;;;;;;;;;5047842;28;20110;-87
2022/11/28 06:20:49;;;;;;;5.90;3.58;;;;;;;;;;5053030;28;20048;-83
2022/11/28 06:23:14;;;;;;;8.82;3.97;;;;;;;;;;5053970;28;20040;-85
2022/11/28 06:25:39;;;;;;;13.32;3.80;;;;;;;;;;5052571;28;20029;-86
2022/11/28 06:28:05;;;;;;;9.43;3.70;;;;;;;;;;5034247;28;20499;-85
2022/11/28 06:30:30;;;;;;;6.85;3.28;;;;;;;;;;5045718;28;20794;-86
2022/11/28 06:32:55;;;;;;;7.45;4.00;;;;;;;;;;5040857;28;20028;-86
2022/11/28 06:35:21;;;;;;;7.05;3.88;;;;;;;;;;5023047;28;20076;-87
2022/11/28 06:37:46;;;;;;;6.10;3.42;;;;;;;;;;5026359;28;20013;-86
2022/11/28 06:40:12;;;;;;;6.05;4.10;;;;;;;;;;5044512;28;20048;-89
2022/11/28 06:42:37;;;;;;;5.80;4.10;;;;;;;;;;5032354;28;20705;-85
2022/11/28 06:45:03;;;;;;;8.73;3.40;;;;;;;;;;5042932;28;20031;-86
2022/11/28 06:47:29;;;;;;;10.40;4.22;;;;;;;;;;5037005;28;21226;-85
2022/11/28 06:49:54;;;;;;;5.38;2.78;;;;;;;;;;5044369;28;20029;-85
2022/11/28 06:52:20;;;;;;;5.45;3.47;;;;;;;;;;5043902;28;20043;-85
2022/11/28 06:54:45;;;;;;;5.75;3.67;;;;;;;;;;5043278;28;20393;-86
2022/11/28 06:57:11;;;;;;;6.47;3.40;;;;;;;;;;5041983;28;20045;-86
2022/11/28 06:59:37;;;;;;;7.78;4.63;;;;;;;;;;5045091;28;20104;-85
2022/11/28 07:02:02;;;;;;;10.50;5.03;;;;;;;;;;5042351;28;20059;-86
2022/11/28 07:04:28;;;;;;;6.95;4.28;;;;;;;;;;5048429;28;20035;-86
2022/11/28 07:06:53;;;;;;;6.68;4.03;;;;;;;;;;5031716;28;20100;-84
2022/11/28 07:09:18;;;;;;;8.32;4.45;;;;;;;;;;5045315;28;20029;-83
2022/11/28 07:11:44;;;;;;;8.82;4.47;;;;;;;;;;5042723;28;20037;-84
2022/11/28 07:14:09;;;;;;;8.68;5.45;;;;;;;;;;5051493;28;20032;-86
2022/11/28 07:16:35;;;;;;;8.35;4.28;;;;;;;;;;5045787;28;20024;-85
2022/11/28 07:19:01;;;;;;;5.97;4.10;;;;;;;;;;5025167;28;20032;-85
2022/11/28 07:21:27;;;;;;;5.32;3.60;;;;;;;;;;5036663;28;20029;-83
2022/11/28 07:23:53;;;;;;;7.05;4.28;;;;;;;;;;5039218;28;20051;-86
2022/11/28 07:26:20;;;;;;;8.32;3.78;;;;;;;;;;5041855;28;20037;-85
2022/11/28 07:28:47;;;;;;;5.93;3.88;;;;;;;;;;5041474;28;20029;-85
2022/11/28 07:31:16;;;;;;;4.50;3.25;;;;;;;;;;5040558;28;20025;-85
2022/11/28 07:33:43;;;;;;;8.18;4.78;;;;;;;;;;5035363;28;21476;-87
2022/11/28 07:36:14;;;;;;;7.72;4.13;;;;;;;;;;5037776;28;20021;-86
2022/11/28 07:38:40;;;;;;;6.97;4.60;;;;;;;;;;5035367;28;20081;-86
2022/11/28 07:41:08;;;;;;;5.78;4.40;;;;;;;;;;5053078;28;20105;-86
2022/11/28 07:43:34;;;;;;;7.72;3.67;;;;;;;;;;5054190;28;20052;-86
2022/11/28 07:46:03;;;;;;;9.50;4.55;;;;;;;;;;5059697;28;20033;-84
2022/11/28 07:48:28;;;;;;;9.13;4.35;;;;;;;;;;5050299;28;20021;-86
2022/11/28 07:50:53;;;;;;;11.50;4.65;;;;;;;;;;5041582;28;20024;-85
2022/11/28 07:53:19;;;;;;;8.35;4.82;;;;;;;;;;5056638;28;20401;-84
2022/11/28 07:55:44;;;;;;;9.65;4.63;;;;;;;;;;5060149;28;20661;-86
2022/11/28 07:58:10;;;;;;;8.27;4.07;;;;;;;;;;5061248;28;20094;-85
2022/11/28 08:00:35;;;;;;;7.47;4.18;;;;;;;;;;5055552;28;20028;-85
2022/11/28 08:03:00;;;;;;;7.95;4.25;;;;;;;;;;5054618;28;20387;-84
2022/11/28 08:05:26;;;;;;;11.95;4.43;;;;;;;;;;5060228;28;20380;-87
2022/11/28 08:07:51;;;;;;;7.95;4.18;;;;;;;;;;5061777;28;20173;-87
2022/11/28 08:10:16;;;;;;;6.32;4.22;;;;;;;;;;5037867;28;20162;-86
2022/11/28 08:12:42;;;;;;;8.02;4.57;;;;;;;;;;5044486;28;20035;-86
2022/11/28 08:15:07;;;;;;;9.52;4.80;;;;;;;;;;5061239;28;20099;-86
2022/11/28 08:17:33;;;;;;;7.88;4.53;;;;;;;;;;5047816;28;20024;-85
2022/11/28 08:19:59;;;;;;;7.05;4.50;;;;;;;;;;5059582;28;20435;-85
2022/11/28 08:22:24;;;;;;;8.15;4.38;;;;;;;;;;5051444;28;20032;-85
2022/11/28 08:24:50;;;;;;;10.77;4.50;;;;;;;;;;5058392;28;20054;-89
2022/11/28 08:27:15;;;;;;;9.00;5.45;;;;;;;;;;5043065;28;20552;-86
2022/11/28 08:29:40;;;;;;;9.80;4.80;;;;;;;;;;5062373;28;20028;-84
2022/11/28 08:32:06;;;;;;;8.82;4.35;;;;;;;;;;5055666;28;20099;-85
2022/11/28 08:34:31;;;;;;;8.82;4.88;;;;;;;;;;5057878;28;20024;-85
2022/11/28 08:36:56;;;;;;;11.05;4.68;;;;;;;;;;5058326;28;20052;-87
2022/11/28 08:39:22;;;;;;;10.77;5.28;;;;;;;;;;5051004;28;20063;-90
2022/11/28 08:41:48;;;;;;;11.20;5.28;;;;;;;;;;5053672;28;20032;-85
2022/11/28 08:44:13;;;;;;;11.65;5.53;;;;;;;;;;5060761;28;20032;-84
2022/11/28 08:46:39;;;;;;;12.52;4.60;;;;;;;;;;5053372;28;20082;-89
2022/11/28 08:49:04;;;;;;;12.55;4.93;;;;;;;;;;5054696;28;20604;-84
2022/11/28 08:51:29;;;;;;;7.38;4.57;;;;;;;;;;5062173;28;20021;-84
2022/11/28 08:53:55;;;;;;;7.43;4.95;;;;;;;;;;5055181;28;20020;-84
2022/11/28 08:56:21;;;;;;;9.15;4.35;;;;;;;;;;5063137;28;20021;-84
2022/11/28 08:58:46;;;;;;;11.15;5.07;;;;;;;;;;5055100;28;20048;-86
2022/11/28 09:01:18;;;;;;;13.18;4.68;;;;;;;;;;5062330;28;20020;-87
2022/11/28 09:03:44;;;;;;;8.00;4.55;;;;;;;;;;5054974;28;20024;-85
2022/11/28 09:06:10;;;;;;;9.93;4.82;;;;;;;;;;5058178;28;20166;-87
2022/11/28 09:08:35;;;;;;;6.30;4.50;;;;;;;;;;5044764;28;20123;-86
2022/11/28 09:11:00;;;;;;;10.93;4.72;;;;;;;;;;5055461;28;20088;-84
2022/11/28 09:13:26;;;;;;;8.80;5.05;;;;;;;;;;5065791;28;20086;-85
2022/11/28 09:15:51;;;;;;;10.25;4.78;;;;;;;;;;5044151;28;20050;-85
2022/11/28 09:18:17;;;;;;;11.00;4.30;;;;;;;;;;5049810;28;20055;-85
2022/11/28 09:20:43;;;;;;;11.77;5.40;;;;;;;;;;5053134;28;20111;-85
2022/11/28 09:23:09;;;;;;;13.82;4.93;;;;;;;;;;5059668;28;20728;-86
2022/11/28 09:25:35;;;;;;;7.85;4.47;;;;;;;;;;5061067;28;20159;-85
2022/11/28 09:28:01;;;;;;;11.68;5.20;;;;;;;;;;5062574;28;20023;-86
2022/11/28 09:30:26;;;;;;;9.05;4.40;;;;;;;;;;5039096;28;20020;-86
2022/11/28 09:32:52;;;;;;;10.77;5.28;;;;;;;;;;5055030;28;20211;-85
2022/11/28 09:35:17;;;;;;;14.18;4.80;;;;;;;;;;5054195;28;20025;-86
2022/11/28 09:37:43;;;;;;;11.63;4.47;;;;;;;;;;5059501;28;20021;-86
2022/11/28 09:40:35;;;;;;;11.18;6.20;;;;;;;;;;5057090;28;20064;-87
2022/11/28 09:43:03;;;;;;;10.32;4.72;;;;;;;;;;5058719;28;20039;-84
2022/11/28 09:45:30;;;;;;;15.65;5.40;;;;;;;;;;5059492;28;20021;-87
2022/11/28 09:48:01;;;;;;;13.25;4.82;;;;;;;;;;5061002;28;20070;-86
2022/11/28 09:50:33;;;;;;;7.63;4.70;;;;;;;;;;5050572;28;20466;-87
2022/11/28 09:53:07;;;;;;;6.75;3.97;;;;;;;;;;5045121;28;20036;-87
2022/11/28 09:55:38;;;;;;;7.55;4.70;;;;;;;;;;5059018;28;20036;-85
2022/11/28 09:58:13;;;;;;;10.88;4.55;;;;;;;;;;5055868;28;20031;-86
2022/11/28 10:00:47;;;;;;;10.27;4.43;;;;;;;;;;5048757;28;20025;-86
2022/11/28 10:03:16;;;;;;;10.02;5.15;;;;;;;;;;5038623;28;20051;-86
2022/11/28 10:05:45;;;;;;;11.20;5.07;;;;;;;;;;5050599;28;20063;-87
2022/11/28 10:08:25;;;;;;;10.25;4.00;;;;;;;;;;5039420;28;20035;-87
2022/11/28 10:11:23;;;;;;;8.88;4.75;;;;;;;;;;5053189;28;20027;-87
2022/11/28 10:14:16;;;;;;;8.30;4.40;;;;;;;;;;5065649;28;20104;-86
2022/11/28 10:16:55;;;;;;;14.32;4.25;;;;;;;;;;5067535;28;20429;-86
2022/11/28 10:19:48;;;;;;;11.73;5.03;;;;;;;;;;5071446;28;20020;-87
2022/11/28 10:22:18;;;;;;;8.98;4.47;;;;;;;;;;5072480;28;20100;-86
2022/11/28 10:24:49;;;;;;;11.90;5.53;;;;;;;;;;5059781;28;20406;-84
2022/11/28 10:27:16;;;;;;;11.48;5.18;;;;;;;;;;5055525;28;20106;-84
2022/11/28 10:29:48;;;;;;;9.05;4.97;;;;;;;;;;5045321;28;20036;-83
2022/11/28 10:32:17;;;;;;;10.77;5.25;;;;;;;;;;5045829;28;20151;-84
2022/11/28 10:34:50;;;;;;;8.88;4.47;;;;;;;;;;5048672;28;20029;-86
2022/11/28 10:37:35;;;;;;;10.10;4.38;;;;;;;;;;5030231;28;20017;-85
2022/11/28 10:40:19;;;;;;;10.43;4.95;;;;;;;;;;5051056;28;20078;-86
2022/11/28 10:42:58;;;;;;;7.60;3.97;;;;;;;;;;5050232;28;20028;-88
2022/11/28 10:45:32;;;;;;;10.68;4.85;;;;;;;;;;5048549;28;20031;-84
2022/11/28 10:48:39;;;;;;;8.32;4.38;;;;;;;;;;5033044;28;20094;-85
2022/11/28 10:51:31;;;;;;;8.13;4.35;;;;;;;;;;5068040;28;20047;-84
2022/11/28 10:54:17;;;;;;;8.25;4.25;;;;;;;;;;5050032;28;20086;-85
2022/11/28 10:56:59;;;;;;;9.73;4.57;;;;;;;;;;5038855;28;20060;-85
2022/11/28 11:00:02;;;;;;;12.85;4.53;;;;;;;;;;5019741;28;20035;-86
2022/11/28 11:02:40;;;;;;;11.25;4.55;;;;;;;;;;5026617;28;20049;-85
2022/11/28 11:05:10;;;;;;;13.57;4.70;;;;;;;;;;5016017;28;20504;-85
2022/11/28 11:07:37;;;;;;;9.52;4.95;;;;;;;;;;5027872;28;20037;-85
2022/11/28 11:10:16;;;;;;;12.57;4.93;;;;;;;;;;5041137;28;20530;-87
2022/11/28 11:12:43;;;;;;;10.27;4.20;;;;;;;;;;5024906;28;20033;-86
2022/11/28 11:15:34;;;;;;;4.90;3.50;;;;;;;;;;5022357;28;20116;-85
2022/11/28 11:18:03;;;;;;;10.15;4.15;;;;;;;;;;5023197;28;20445;-86
2022/11/28 11:20:38;;;;;;;9.15;5.03;;;;;;;;;;5024572;28;20718;-84
2022/11/28 11:23:19;;;;;;;9.55;4.55;;;;;;;;;;5023372;28;20025;-88
2022/11/28 11:25:54;;;;;;;12.15;4.57;;;;;;;;;;5023710;28;20276;-87
2022/11/28 11:28:35;;;;;;;10.18;4.47;;;;;;;;;;5029314;28;20048;-87
2022/11/28 11:31:03;;;;;;;7.57;4.07;;;;;;;;;;5022628;28;20139;-87
2022/11/28 11:33:33;;;;;;;8.77;4.80;;;;;;;;;;5056168;28;20013;-85
2022/11/28 11:36:01;;;;;;;10.77;4.15;;;;;;;;;;5053951;28;20036;-85
2022/11/28 11:38:28;;;;;;;9.80;4.80;;;;;;;;;;5057191;28;20038;-87
2022/11/28 11:40:54;;;;;;;10.15;4.82;;;;;;;;;;5053770;28;20032;-85
2022/11/28 11:43:31;;;;;;;5.45;4.07;;;;;;;;;;5014917;28;20021;-86
2022/11/28 11:46:14;;;;;;;19.90;4.75;;;;;;;;;;5038415;28;20098;-87
2022/11/28 11:48:48;;;;;;;7.70;4.47;;;;;;;;;;5025526;28;20029;-87
2022/11/28 11:51:22;;;;;;;10.50;4.63;;;;;;;;;;5022453;28;20025;-85
2022/11/28 11:53:48;;;;;;;10.55;5.32;;;;;;;;;;5028199;28;20071;-89
2022/11/28 11:56:13;;;;;;;10.45;4.90;;;;;;;;;;5029514;28;20028;-85
2022/11/28 11:58:50;;;;;;;10.43;5.22;;;;;;;;;;5037693;28;20103;-84
2022/11/28 12:01:18;;;;;;;9.43;5.10;;;;;;;;;;5029543;28;20059;-85
2022/11/28 12:03:59;;;;;;;10.93;5.15;;;;;;;;;;5042550;28;20117;-86
2022/11/28 12:06:31;;;;;;;18.08;5.78;;;;;;;;;;5015907;28;20025;-86
2022/11/28 12:09:26;;;;;;;12.50;5.22;;;;;;;;;;5036762;28;20025;-87
2022/11/28 12:12:10;;;;;;;11.95;5.40;;;;;;;;;;5019200;28;20402;-86
2022/11/28 12:14:46;;;;;;;9.02;4.63;;;;;;;;;;5035973;28;20048;-86
2022/11/28 12:17:33;;;;;;;7.63;4.75;;;;;;;;;;5037831;28;20020;-83
2022/11/28 12:20:20;;;;;;;8.88;5.10;;;;;;;;;;5037844;28;20024;-87
2022/11/28 12:23:07;;;;;;;10.52;4.90;;;;;;;;;;5039328;28;20032;-87
2022/11/28 12:25:43;;;;;;;8.50;4.72;;;;;;;;;;5034668;28;20021;-86
2022/11/28 12:28:27;;;;;;;8.45;4.95;;;;;;;;;;5034195;28;20021;-85
2022/11/28 12:31:02;;;;;;;8.27;4.97;;;;;;;;;;5037519;28;20032;-85
2022/11/28 12:33:54;;;;;;;12.35;4.90;;;;;;;;;;5036880;28;20013;-86
2022/11/28 12:36:37;;;;;;;10.30;4.72;;;;;;;;;;5029181;28;20021;-87
2022/11/28 12:40:02;;;;;;;9.23;5.38;;;;;;;;;;5027060;28;20043;-85
2022/11/28 12:42:40;;;;;;;9.00;4.90;;;;;;;;;;4993187;28;20410;-87
2022/11/28 12:45:33;;;;;;;8.20;4.38;;;;;;;;;;5026308;28;20115;-89
2022/11/28 12:48:00;;;;;;;13.63;4.68;;;;;;;;;;5028052;28;20168;-86
2022/11/28 12:50:36;;;;;;;10.52;4.63;;;;;;;;;;5027305;28;20563;-86
2022/11/28 12:53:34;;;;;;;6.57;4.40;;;;;;;;;;5012749;28;20086;-87
2022/11/28 12:56:20;;;;;;;7.90;4.88;;;;;;;;;;5029369;28;20024;-88
2022/11/28 12:59:05;;;;;;;11.05;5.25;;;;;;;;;;5031193;28;20017;-88
2022/11/28 13:01:51;;;;;;;13.45;5.75;;;;;;;;;;5053710;28;20050;-87
2022/11/28 13:04:51;;;;;;;18.13;5.53;;;;;;;;;;5021506;28;20841;-86
2022/11/28 13:07:35;;;;;;;12.13;5.40;;;;;;;;;;5042444;28;20414;-87
2022/11/28 13:10:24;;;;;;;10.68;5.20;;;;;;;;;;5033171;28;20041;-86
2022/11/28 13:13:03;;;;;;;13.55;5.10;;;;;;;;;;5033539;28;20110;-86
2022/11/28 13:16:01;;;;;;;9.02;5.07;;;;;;;;;;5032403;28;20088;-85
2022/11/28 13:18:44;;;;;;;16.33;4.80;;;;;;;;;;5032149;28;20045;-85
2022/11/28 13:21:33;;;;;;;7.40;4.95;;;;;;;;;;5039680;28;20033;-86
2022/11/28 13:24:14;;;;;;;10.35;4.90;;;;;;;;;;5031522;28;20102;-86
2022/11/28 13:26:50;;;;;;;13.02;5.55;;;;;;;;;;5037245;28;20050;-87
2022/11/28 13:29:27;;;;;;;7.43;4.85;;;;;;;;;;5029853;28;20490;-89
2022/11/28 13:32:06;;;;;;;13.75;5.50;;;;;;;;;;5029975;28;20115;-85
2022/11/28 13:34:33;;;;;;;11.85;5.57;;;;;;;;;;5021388;28;20041;-88
2022/11/28 13:37:16;;;;;;;11.98;5.50;;;;;;;;;;5025766;28;20154;-88
2022/11/28 13:39:48;;;;;;;10.48;5.50;;;;;;;;;;5020744;28;20032;-89
2022/11/28 13:42:37;;;;;;;10.05;5.40;;;;;;;;;;5028387;28;20029;-87
2022/11/28 13:45:24;;;;;;;9.93;4.68;;;;;;;;;;5024435;28;20029;-88
2022/11/28 13:47:49;;;;;;;10.30;4.90;;;;;;;;;;5023788;28;20021;-87
2022/11/28 13:50:39;;;;;;;8.93;5.47;;;;;;;;;;5028194;28;20039;-85
2022/11/28 13:53:07;;;;;;;9.65;5.47;;;;;;;;;;5027062;28;20075;-85
2022/11/28 13:56:23;;;;;;;7.18;4.53;;;;;;;;;;5044878;28;20031;-86
2022/11/28 13:59:00;;;;;;;6.38;4.47;;;;;;;;;;5028755;28;20764;-85
2022/11/28 14:01:56;;;;;;;7.95;5.03;;;;;;;;;;5019551;28;20375;-86
2022/11/28 14:04:21;;;;;;;6.43;4.68;;;;;;;;;;5031405;28;20284;-87
2022/11/28 14:06:50;;;;;;;9.07;5.45;;;;;;;;;;5029368;28;20043;-86
2022/11/28 14:09:15;;;;;;;9.65;5.28;;;;;;;;;;5030516;28;20084;-89
2022/11/28 14:12:08;;;;;;;10.52;5.63;;;;;;;;;;5029551;28;20096;-87
2022/11/28 14:14:59;;;;;;;8.73;4.65;;;;;;;;;;5056904;28;20020;-87
2022/11/28 14:17:33;;;;;;;8.63;5.40;;;;;;;;;;5054244;28;20036;-86
2022/11/28 14:20:29;;;;;;;10.93;4.93;;;;;;;;;;5048787;28;20112;-87
2022/11/28 14:22:57;;;;;;;9.90;4.53;;;;;;;;;;5031478;28;20029;-85
2022/11/28 14:25:44;;;;;;;14.50;5.70;;;;;;;;;;5027654;28;20032;-86
2022/11/28 14:28:21;;;;;;;19.60;5.57;;;;;;;;;;5032946;28;20024;-85
2022/11/28 14:30:48;;;;;;;8.52;4.57;;;;;;;;;;5041969;28;20024;-87
2022/11/28 14:33:37;;;;;;;9.30;5.00;;;;;;;;;;5057554;28;20048;-89
2022/11/28 14:36:24;;;;;;;7.35;4.05;;;;;;;;;;5059436;28;20044;-91
2022/11/28 14:39:00;;;;;;;5.22;3.78;;;;;;;;;;5060907;28;20115;-89
2022/11/28 14:41:25;;;;;;;12.70;4.90;;;;;;;;;;5034810;28;20434;-92
2022/11/28 14:43:52;;;;;;;8.98;4.78;;;;;;;;;;5052622;28;20705;-90
2022/11/28 14:46:29;;;;;;;8.07;4.97;;;;;;;;;;5009412;28;20020;-90
2022/11/28 14:48:57;;;;;;;10.13;4.38;;;;;;;;;;5019903;28;20013;-89
2022/11/28 14:52:05;;;;;;;10.63;5.03;;;;;;;;;;5018411;28;20426;-86
2022/11/28 14:54:36;;;;;;;7.60;4.65;;;;;;;;;;5021577;28;20509;-89
2022/11/28 14:57:11;;;;;;;8.90;4.05;;;;;;;;;;5015544;28;20037;-87
2022/11/28 14:59:38;;;;;;;9.10;4.75;;;;;;;;;;5037744;28;20020;-89
2022/11/28 15:02:10;;;;;;;8.18;4.60;;;;;;;;;;5045968;28;20048;-90
2022/11/28 15:04:47;;;;;;;10.82;4.68;;;;;;;;;;5020070;28;20375;-91
2022/11/28 15:18:18;;;;;;;5.63;4.13;;;;;;;;;;5002799;28;20040;-87
2022/11/28 16:12:27;;;;;;;6.70;4.43;;;;;;;;;;4931931;28;20558;-88
2022/11/28 16:22:49;;;;;;;9.77;5.15;;;;;;;;;;4989316;28;20117;-87
2022/11/28 16:36:20;;;;;;;12.40;5.90;;;;;;;;;;4904812;29;20565;-90